Terminal Aerodrome Forecast
Issued by NWS

Home | Current Version | Previous Version | Graphics & Text | Print | Product List | Glossary On
Versions: 1 2 3 4 5 6 7 8 9 10 11 12 13 14 15 16 17 18 19 20 21 22 23 24 25 26 27 28 29 30 31 32
000
FTUS43 KLOT 152300
TAFDPA
TAF
KDPA 152323Z 1600/1624 01011KT P6SM -RADZ SCT010 BKN015 OVC030
     FM160030 36008KT P6SM SCT015 BKN025
     FM160300 34005KT P6SM SKC
      TEMPO 1608/1612 5SM BR BCFG
     FM161700 31006KT P6SM SCT030=

USA.gov is the U.S. government's official web portal to all federal, state and local government web resources and services.